TimeEST,TemperatureF,Dew PointF,Humidity,Sea Level PressureIn,VisibilityMPH,Wind Direction,Wind SpeedMPH,Gust SpeedMPH,PrecipitationIn,Events,Conditions,WindDirDegrees,DateUTC
12:18 AM,33.8,26.6,75,30.40,10.0,East,4.6,-,N/A,,Clear,90,2012-11-19 05:18:00
12:38 AM,32.0,26.6,80,30.39,10.0,East,4.6,-,N/A,,Clear,80,2012-11-19 05:38:00
12:58 AM,32.0,26.6,80,30.39,10.0,Calm,Calm,-,N/A,,Clear,0,2012-11-19 05:58:00
1:18 AM,32.0,26.6,80,30.38,10.0,Calm,Calm,-,N/A,,Clear,0,2012-11-19 06:18:00
1:38 AM,32.0,26.6,80,30.38,10.0,Calm,Calm,-,N/A,,Clear,0,2012-11-19 06:38:00
1:58 AM,32.0,26.6,80,30.37,10.0,Calm,Calm,-,N/A,,Clear,0,2012-11-19 06:58:00
2:18 AM,32.0,26.6,80,30.37,10.0,Calm,Calm,-,N/A,,Clear,0,2012-11-19 07:18:00
2:38 AM,32.0,26.6,80,30.38,10.0,Calm,Calm,-,N/A,,Clear,0,2012-11-19 07:38:00
2:59 AM,30.2,24.8,80,30.38,10.0,Calm,Calm,-,N/A,,Clear,0,2012-11-19 07:59:00
3:18 AM,28.4,24.8,86,30.38,10.0,Calm,Calm,-,N/A,,Clear,0,2012-11-19 08:18:00
3:38 AM,30.2,24.8,80,30.38,10.0,Calm,Calm,-,N/A,,Clear,0,2012-11-19 08:38:00
3:59 AM,28.4,26.6,93,30.38,10.0,Calm,Calm,-,N/A,,Clear,0,2012-11-19 08:59:00
4:18 AM,30.2,26.6,86,30.37,10.0,Calm,Calm,-,N/A,,Clear,0,2012-11-19 09:18:00
4:38 AM,28.4,24.8,86,30.37,10.0,Calm,Calm,-,N/A,,Clear,0,2012-11-19 09:38:00
4:59 AM,28.4,24.8,86,30.37,10.0,Calm,Calm,-,N/A,,Clear,0,2012-11-19 09:59:00
5:18 AM,28.4,24.8,86,30.37,10.0,Calm,Calm,-,N/A,,Clear,0,2012-11-19 10:18:00
5:38 AM,28.4,24.8,86,30.36,10.0,East,3.5,-,N/A,,Clear,100,2012-11-19 10:38:00
5:59 AM,28.4,26.6,93,30.36,10.0,Calm,Calm,-,N/A,,Clear,0,2012-11-19 10:59:00
6:18 AM,30.2,26.6,86,30.36,10.0,Calm,Calm,-,N/A,,Clear,0,2012-11-19 11:18:00
6:38 AM,30.2,26.6,86,30.37,10.0,Calm,Calm,-,N/A,,Clear,0,2012-11-19 11:38:00
6:59 AM,30.2,26.6,86,30.36,10.0,Calm,Calm,-,N/A,,Clear,0,2012-11-19 11:59:00
7:18 AM,28.4,26.6,93,30.37,10.0,Calm,Calm,-,N/A,,Clear,0,2012-11-19 12:18:00
7:38 AM,30.2,26.6,86,30.37,10.0,Calm,Calm,-,N/A,,Clear,0,2012-11-19 12:38:00
7:59 AM,30.2,26.6,86,30.37,10.0,Calm,Calm,-,N/A,,Clear,0,2012-11-19 12:59:00
8:38 AM,32.0,28.4,87,30.37,10.0,Calm,Calm,-,N/A,,Clear,0,2012-11-19 13:38:00
8:58 AM,32.0,30.2,93,30.37,10.0,Calm,Calm,-,N/A,,Clear,0,2012-11-19 13:58:00
9:18 AM,33.8,30.2,87,30.37,10.0,Calm,Calm,-,N/A,,Clear,0,2012-11-19 14:18:00
9:38 AM,37.4,32.0,81,30.36,10.0,Calm,Calm,-,N/A,,Clear,0,2012-11-19 14:38:00
9:58 AM,37.4,32.0,81,30.36,10.0,Calm,Calm,-,N/A,,Clear,0,2012-11-19 14:58:00
10:18 AM,39.2,32.0,75,30.36,10.0,SE,4.6,-,N/A,,Clear,140,2012-11-19 15:18:00
10:38 AM,41.0,32.0,70,30.35,1.0,SE,3.5,-,N/A,,Haze,130,2012-11-19 15:38:00
10:58 AM,42.8,32.0,66,30.35,1.5,SSE,3.5,-,N/A,,Haze,150,2012-11-19 15:58:00
11:18 AM,42.8,32.0,66,30.35,10.0,SSE,4.6,-,N/A,,Clear,160,2012-11-19 16:18:00
11:39 AM,44.6,32.0,61,30.35,10.0,Calm,Calm,-,N/A,,Clear,0,2012-11-19 16:39:00
11:58 AM,46.4,33.8,62,30.34,10.0,Calm,Calm,-,N/A,,Clear,0,2012-11-19 16:58:00
12:18 PM,48.2,33.8,58,30.33,10.0,SSW,4.6,-,N/A,,Clear,210,2012-11-19 17:18:00
12:38 PM,50.0,33.8,54,30.32,10.0,SSE,3.5,-,N/A,,Clear,160,2012-11-19 17:38:00
12:58 PM,50.0,33.8,54,30.32,10.0,Calm,Calm,-,N/A,,Clear,0,2012-11-19 17:58:00
1:18 PM,51.8,33.8,50,30.31,10.0,Calm,Calm,-,N/A,,Clear,0,2012-11-19 18:18:00
1:39 PM,51.8,33.8,50,30.30,10.0,Calm,Calm,-,N/A,,Clear,0,2012-11-19 18:39:00
2:18 PM,53.6,33.8,47,30.29,10.0,Calm,Calm,-,N/A,,Clear,0,2012-11-19 19:18:00
2:39 PM,53.6,33.8,47,30.28,10.0,Calm,Calm,-,N/A,,Clear,0,2012-11-19 19:39:00
2:58 PM,53.6,33.8,47,30.27,10.0,Calm,Calm,-,N/A,,Clear,0,2012-11-19 19:58:00
3:18 PM,53.6,33.8,47,30.27,10.0,Calm,Calm,-,N/A,,Clear,0,2012-11-19 20:18:00
3:39 PM,53.6,35.6,51,30.27,10.0,Calm,Calm,-,N/A,,Clear,0,2012-11-19 20:39:00
3:58 PM,51.8,35.6,54,30.26,10.0,East,3.5,-,N/A,,Clear,90,2012-11-19 20:58:00
4:18 PM,51.8,35.6,54,30.26,10.0,Calm,Calm,-,N/A,,Clear,0,2012-11-19 21:18:00
4:39 PM,51.8,35.6,54,30.26,10.0,Calm,Calm,-,N/A,,Clear,0,2012-11-19 21:39:00
4:58 PM,51.8,35.6,54,30.26,10.0,Calm,Calm,-,N/A,,Clear,0,2012-11-19 21:58:00
5:18 PM,48.2,33.8,58,30.25,10.0,East,5.8,-,N/A,,Clear,90,2012-11-19 22:18:00
5:38 PM,44.6,33.8,66,30.24,10.0,East,5.8,-,N/A,,Clear,90,2012-11-19 22:38:00
5:58 PM,44.6,33.8,66,30.24,10.0,ESE,4.6,-,N/A,,Clear,110,2012-11-19 22:58:00
6:19 PM,42.8,33.8,70,30.25,10.0,Calm,Calm,-,N/A,,Clear,0,2012-11-19 23:19:00
6:38 PM,42.8,32.0,66,30.25,10.0,Calm,Calm,-,N/A,,Clear,0,2012-11-19 23:38:00
6:58 PM,42.8,33.8,70,30.25,10.0,Calm,Calm,-,N/A,,Clear,0,2012-11-19 23:58:00
7:19 PM,41.0,32.0,70,30.24,10.0,Calm,Calm,-,N/A,,Clear,0,2012-11-20 00:19:00
7:38 PM,39.2,32.0,75,30.24,10.0,Calm,Calm,-,N/A,,Clear,0,2012-11-20 00:38:00
7:58 PM,37.4,32.0,81,30.24,10.0,Calm,Calm,-,N/A,,Clear,0,2012-11-20 00:58:00
8:19 PM,39.2,32.0,75,30.24,10.0,Calm,Calm,-,N/A,,Clear,0,2012-11-20 01:19:00
8:38 PM,37.4,32.0,81,30.23,10.0,Calm,Calm,-,N/A,,Clear,0,2012-11-20 01:38:00
8:58 PM,39.2,33.8,81,30.23,10.0,ESE,3.5,-,N/A,,Clear,120,2012-11-20 01:58:00
9:18 PM,37.4,32.0,81,30.23,10.0,Calm,Calm,-,N/A,,Clear,0,2012-11-20 02:18:00
9:38 PM,39.2,33.8,81,30.23,10.0,Calm,Calm,-,N/A,,Clear,0,2012-11-20 02:38:00
9:58 PM,39.2,33.8,81,30.22,10.0,Calm,Calm,-,N/A,,Clear,0,2012-11-20 02:58:00
10:18 PM,35.6,32.0,87,30.22,10.0,Calm,Calm,-,N/A,,Clear,0,2012-11-20 03:18:00
10:38 PM,35.6,32.0,87,30.21,10.0,Calm,Calm,-,N/A,,Clear,0,2012-11-20 03:38:00
10:59 PM,35.6,32.0,87,30.21,10.0,Calm,Calm,-,N/A,,Clear,0,2012-11-20 03:59:00
11:18 PM,35.6,32.0,87,30.20,10.0,Calm,Calm,-,N/A,,Clear,0,2012-11-20 04:18:00
11:38 PM,33.8,32.0,93,30.20,10.0,Calm,Calm,-,N/A,,Clear,0,2012-11-20 04:38:00
11:59 PM,35.6,32.0,87,30.20,10.0,Calm,Calm,-,N/A,,Clear,0,2012-11-20 04:59:00